createdAt,value
2023-01-07T00:00:19.410Z,10.38
2023-01-07T00:01:19.165Z,10.51
2023-01-07T00:02:19.333Z,10.49
2023-01-07T00:03:19.184Z,10.51
2023-01-07T00:04:22.130Z,10.53
2023-01-07T00:05:19.133Z,10.57
2023-01-07T00:06:19.256Z,10.48
2023-01-07T00:07:19.171Z,10.48
2023-01-07T00:08:19.145Z,10.55
2023-01-07T00:09:19.270Z,10.53
2023-01-07T00:10:19.142Z,10.53
2023-01-07T00:11:19.146Z,10.48
2023-01-07T00:12:19.166Z,10.46
2023-01-07T00:13:19.157Z,10.49
2023-01-07T00:14:19.154Z,10.48
2023-01-07T00:15:22.204Z,10.53
2023-01-07T00:16:20.466Z,10.45
2023-01-07T00:17:19.155Z,10.55
2023-01-07T00:18:19.293Z,10.55
2023-01-07T00:19:19.207Z,10.45
2023-01-07T00:20:19.154Z,10.48
2023-01-07T00:21:19.159Z,10.46
2023-01-07T00:22:19.204Z,10.38
2023-01-07T00:23:19.146Z,10.45
2023-01-07T00:24:21.427Z,10.43
2023-01-07T00:25:19.171Z,10.41
2023-01-07T00:26:21.976Z,10.49
2023-01-07T00:27:19.180Z,10.49
2023-01-07T00:28:19.194Z,10.43
2023-01-07T00:29:19.252Z,10.36
2023-01-07T00:30:19.170Z,10.46
2023-01-07T00:31:19.310Z,10.55
2023-01-07T00:32:19.203Z,10.41
2023-01-07T00:33:19.183Z,10.33
2023-01-07T00:34:19.359Z,10.42
2023-01-07T00:35:19.214Z,10.38
2023-01-07T00:36:19.168Z,10.33
2023-01-07T00:37:21.943Z,10.39
2023-01-07T00:38:19.330Z,10.36
2023-01-07T00:39:19.254Z,10.38
2023-01-07T00:40:19.196Z,10.39
2023-01-07T00:41:19.214Z,10.36
2023-01-07T00:42:19.266Z,10.43
2023-01-07T00:43:19.212Z,10.38
2023-01-07T00:44:19.209Z,10.42
2023-01-07T00:45:19.190Z,10.42
2023-01-07T00:46:19.387Z,10.3
2023-01-07T00:47:19.200Z,10.3
2023-01-07T00:48:21.996Z,10.39
2023-01-07T00:49:19.230Z,10.25
2023-01-07T00:50:19.452Z,10.25
2023-01-07T00:51:19.243Z,10.27
2023-01-07T00:52:19.196Z,10.21
2023-01-07T00:53:22.118Z,10.15
2023-01-07T00:54:19.256Z,10.09
2023-01-07T00:55:19.218Z,10.21
2023-01-07T00:56:19.300Z,10.18
2023-01-07T00:57:19.224Z,10.1
2023-01-07T00:58:19.232Z,10.12
2023-01-07T00:59:22.346Z,10.13
2023-01-07T01:00:19.265Z,10
2023-01-07T01:01:19.687Z,10.05
2023-01-07T01:02:19.473Z,9.99
2023-01-07T01:03:19.217Z,9.95
2023-01-07T01:04:20.496Z,10.07
2023-01-07T01:05:19.207Z,9.99
2023-01-07T01:06:19.491Z,10.02
2023-01-07T01:07:19.251Z,10
2023-01-07T01:08:19.232Z,10.06
2023-01-07T01:09:19.376Z,10.03
2023-01-07T01:10:22.119Z,9.95
2023-01-07T01:11:19.266Z,9.91
2023-01-07T01:12:19.255Z,10.06
2023-01-07T01:13:22.734Z,9.95
2023-01-07T01:14:19.272Z,10
2023-01-07T01:15:22.382Z,10
2023-01-07T01:16:19.471Z,9.99
2023-01-07T01:17:19.246Z,9.91
2023-01-07T01:18:19.254Z,9.99
2023-01-07T01:19:22.035Z,9.95
2023-01-07T01:20:19.250Z,10.02
2023-01-07T01:21:22.348Z,9.9
2023-01-07T01:22:19.349Z,10.05
2023-01-07T01:23:19.235Z,10.06
2023-01-07T01:24:19.269Z,10.03
2023-01-07T01:25:19.412Z,10.02
2023-01-07T01:26:22.328Z,9.97
2023-01-07T01:27:19.251Z,10.03
2023-01-07T01:28:19.260Z,10.12
2023-01-07T01:29:19.271Z,10.15
2023-01-07T01:30:19.271Z,10.12
2023-01-07T01:31:19.354Z,10.1
2023-01-07T01:32:19.271Z,10.12
2023-01-07T01:33:19.265Z,10.07
2023-01-07T01:34:19.297Z,10.1
2023-01-07T01:35:19.286Z,10.1
2023-01-07T01:36:19.290Z,10.02
2023-01-07T01:37:22.451Z,10.03
2023-01-07T01:38:19.385Z,10.03
2023-01-07T01:39:19.321Z,10.1
2023-01-07T01:40:19.289Z,10.05
2023-01-07T01:41:19.424Z,10.09
2023-01-07T01:42:19.294Z,10.03
2023-01-07T01:43:19.269Z,10.13
2023-01-07T01:44:19.292Z,10
2023-01-07T01:45:19.291Z,10.15
2023-01-07T01:46:19.585Z,10.02
2023-01-07T01:47:19.284Z,10.02
2023-01-07T01:48:19.294Z,10.15
2023-01-07T01:49:19.320Z,10.15
2023-01-07T01:50:19.324Z,10.07
2023-01-07T01:51:19.298Z,10.03
2023-01-07T01:52:19.317Z,10.05
2023-01-07T01:53:19.434Z,10.05
2023-01-07T01:54:19.451Z,9.97
2023-01-07T01:55:19.328Z,9.87
2023-01-07T01:56:19.290Z,9.97
2023-01-07T01:57:19.465Z,9.99
2023-01-07T01:58:19.316Z,9.9
2023-01-07T01:59:19.351Z,9.95
2023-01-07T02:00:19.306Z,9.95
2023-01-07T02:01:20.011Z,9.9
2023-01-07T02:02:19.721Z,9.81
2023-01-07T02:03:19.314Z,9.9
2023-01-07T02:04:19.312Z,9.85
2023-01-07T02:05:19.360Z,9.95
2023-01-07T02:06:19.308Z,10
2023-01-07T02:07:19.308Z,9.99
2023-01-07T02:08:19.313Z,9.95
2023-01-07T02:09:22.269Z,9.97
2023-01-07T02:10:19.449Z,9.97
2023-01-07T02:11:19.316Z,9.92
2023-01-07T02:12:19.336Z,9.88
2023-01-07T02:13:19.471Z,9.85
2023-01-07T02:14:19.361Z,9.99
2023-01-07T02:15:19.329Z,9.87
2023-01-07T02:16:19.614Z,9.87
2023-01-07T02:17:19.362Z,9.94
2023-01-07T02:18:19.349Z,9.87
2023-01-07T02:19:19.406Z,9.92
2023-01-07T02:20:22.225Z,9.81
2023-01-07T02:21:19.337Z,9.87
2023-01-07T02:22:19.360Z,9.91
2023-01-07T02:23:19.409Z,9.88
2023-01-07T02:24:19.372Z,9.85
2023-01-07T02:25:19.464Z,9.91
2023-01-07T02:26:19.516Z,9.81
2023-01-07T02:27:21.235Z,9.99
2023-01-07T02:28:19.411Z,9.94
2023-01-07T02:29:19.497Z,9.97
2023-01-07T02:30:19.376Z,9.94
2023-01-07T02:31:22.413Z,9.88
2023-01-07T02:32:19.354Z,9.94
2023-01-07T02:33:19.393Z,10.03
2023-01-07T02:34:19.422Z,9.97
2023-01-07T02:35:19.368Z,9.97
2023-01-07T02:36:19.350Z,9.99
2023-01-07T02:37:19.421Z,9.95
2023-01-07T02:38:19.376Z,9.74
2023-01-07T02:39:19.391Z,9.87
2023-01-07T02:40:19.393Z,9.94
2023-01-07T02:41:19.499Z,9.85
2023-01-07T02:42:22.506Z,9.91
2023-01-07T02:43:19.384Z,9.91
2023-01-07T02:44:19.392Z,9.87
2023-01-07T02:45:19.493Z,9.95
2023-01-07T02:46:19.502Z,9.9
2023-01-07T02:47:19.378Z,9.84
2023-01-07T02:48:19.400Z,9.87
2023-01-07T02:49:19.420Z,9.91
2023-01-07T02:50:19.399Z,10
2023-01-07T02:51:19.385Z,9.84
2023-01-07T02:52:19.387Z,9.84
2023-01-07T02:53:22.205Z,9.92
2023-01-07T02:54:19.444Z,9.84
2023-01-07T02:55:19.400Z,9.9
2023-01-07T02:56:19.397Z,9.87
2023-01-07T02:57:19.524Z,9.85
2023-01-07T02:58:19.545Z,9.97
2023-01-07T02:59:19.446Z,9.9
2023-01-07T03:00:19.433Z,9.87
2023-01-07T03:01:20.113Z,9.92
2023-01-07T03:02:19.392Z,9.84
2023-01-07T03:03:19.410Z,9.82
2023-01-07T03:04:23.705Z,9.9
2023-01-07T03:05:19.419Z,9.8
2023-01-07T03:06:19.403Z,9.8
2023-01-07T03:07:19.408Z,9.85
2023-01-07T03:08:19.399Z,9.91
2023-01-07T03:09:19.428Z,9.88
2023-01-07T03:10:19.437Z,9.88
2023-01-07T03:11:19.413Z,9.9
2023-01-07T03:12:19.434Z,9.94
2023-01-07T03:13:19.574Z,9.85
2023-01-07T03:14:19.597Z,10.02
2023-01-07T03:15:22.614Z,9.91
2023-01-07T03:16:19.518Z,9.91
2023-01-07T03:17:19.559Z,9.95
2023-01-07T03:18:19.442Z,9.99
2023-01-07T03:19:19.420Z,9.94
2023-01-07T03:20:20.613Z,9.94
2023-01-07T03:21:19.463Z,9.92
2023-01-07T03:22:19.476Z,10.05
2023-01-07T03:23:19.456Z,9.94
2023-01-07T03:24:19.467Z,10
2023-01-07T03:25:19.473Z,10.03
2023-01-07T03:26:22.462Z,9.94
2023-01-07T03:27:19.469Z,9.94
2023-01-07T03:28:19.459Z,9.85
2023-01-07T03:29:19.603Z,9.91
2023-01-07T03:30:19.620Z,10.02
2023-01-07T03:31:22.630Z,9.95
2023-01-07T03:32:19.489Z,9.91
2023-01-07T03:33:19.571Z,9.9
2023-01-07T03:34:19.449Z,9.94
2023-01-07T03:35:19.523Z,9.92
2023-01-07T03:36:19.465Z,9.84
2023-01-07T03:37:22.209Z,9.85
2023-01-07T03:38:19.470Z,9.82
2023-01-07T03:39:19.485Z,9.85
2023-01-07T03:40:19.527Z,9.82
2023-01-07T03:41:19.472Z,9.74
2023-01-07T03:42:22.266Z,9.82
2023-01-07T03:43:19.485Z,9.9
2023-01-07T03:44:19.485Z,9.9
2023-01-07T03:45:19.631Z,9.82
2023-01-07T03:46:19.671Z,9.87
2023-01-07T03:47:19.479Z,9.88
2023-01-07T03:48:22.311Z,9.9
2023-01-07T03:49:19.619Z,9.77
2023-01-07T03:50:19.512Z,9.77
2023-01-07T03:51:19.488Z,9.85
2023-01-07T03:52:19.500Z,9.85
2023-01-07T03:53:22.702Z,9.82
2023-01-07T03:54:19.497Z,9.74
2023-01-07T03:55:19.521Z,9.88
2023-01-07T03:56:19.488Z,9.85
2023-01-07T03:57:19.516Z,9.73
2023-01-07T03:58:19.515Z,9.74
2023-01-07T03:59:19.522Z,9.95
2023-01-07T04:00:19.583Z,9.82
2023-01-07T04:01:20.030Z,9.85
2023-01-07T04:02:19.737Z,9.9
2023-01-07T04:03:19.528Z,9.84
2023-01-07T04:04:19.847Z,9.9
2023-01-07T04:05:19.660Z,9.77
2023-01-07T04:06:19.534Z,9.81
2023-01-07T04:07:19.598Z,9.82
2023-01-07T04:08:20.635Z,9.87
2023-01-07T04:09:19.574Z,9.77
2023-01-07T04:10:19.532Z,9.84
2023-01-07T04:11:19.554Z,9.82
2023-01-07T04:12:19.516Z,9.88
2023-01-07T04:13:19.527Z,9.77
2023-01-07T04:14:19.550Z,9.88
2023-01-07T04:15:19.625Z,9.88
2023-01-07T04:16:19.714Z,9.94
2023-01-07T04:17:19.636Z,9.94
2023-01-07T04:18:19.662Z,9.77
2023-01-07T04:19:19.625Z,9.9
2023-01-07T04:20:19.563Z,9.91
2023-01-07T04:21:19.815Z,9.87
2023-01-07T04:22:19.584Z,9.77
2023-01-07T04:23:19.563Z,9.91
2023-01-07T04:24:19.541Z,9.88
2023-01-07T04:25:19.551Z,9.77
2023-01-07T04:26:19.519Z,9.77
2023-01-07T04:27:19.566Z,9.81
2023-01-07T04:28:19.541Z,9.82
2023-01-07T04:30:07.674Z,9.77
2023-01-07T04:31:34.548Z,9.69
2023-01-07T04:32:34.882Z,9.73
2023-01-07T04:33:36.788Z,9.7
2023-01-07T04:40:32.143Z,9.76
2023-01-07T04:41:35.025Z,9.8
2023-01-07T04:42:35.016Z,9.67
2023-01-07T04:43:40.713Z,9.87
2023-01-07T04:44:34.727Z,9.85
2023-01-07T04:45:31.897Z,9.76
2023-01-07T04:46:32.117Z,9.8
2023-01-07T04:47:31.881Z,9.8
2023-01-07T04:48:34.897Z,9.76
2023-01-07T04:49:31.877Z,9.72
2023-01-07T04:50:31.930Z,9.8
2023-01-07T04:51:31.897Z,9.85
2023-01-07T04:52:31.906Z,9.76
2023-01-07T04:53:31.899Z,9.81
2023-01-07T04:54:31.876Z,9.76
2023-01-07T04:55:31.954Z,9.69
2023-01-07T04:56:32.158Z,9.73
2023-01-07T04:57:31.900Z,9.7
2023-01-07T04:58:31.912Z,9.73
2023-01-07T04:59:43.924Z,9.59
2023-01-07T05:00:31.953Z,9.64
2023-01-07T05:01:32.427Z,9.66
2023-01-07T05:02:31.921Z,9.67
2023-01-07T05:03:31.963Z,9.72
2023-01-07T05:04:32.301Z,9.66
2023-01-07T05:05:31.918Z,9.67
2023-01-07T05:06:31.920Z,9.74
2023-01-07T05:07:31.909Z,9.59
2023-01-07T05:08:31.939Z,9.73
2023-01-07T05:09:31.904Z,9.67
2023-01-07T05:10:34.692Z,9.69
2023-01-07T05:11:31.897Z,9.69
2023-01-07T05:12:32.170Z,9.7
2023-01-07T05:13:32.024Z,9.73
2023-01-07T05:14:31.973Z,9.67
2023-01-07T05:15:31.935Z,9.66
2023-01-07T05:16:32.108Z,9.66
2023-01-07T05:17:31.937Z,9.74
2023-01-07T05:18:31.972Z,9.7
2023-01-07T05:19:31.987Z,9.73
2023-01-07T05:20:32.071Z,9.69
2023-01-07T05:21:35.002Z,9.8
2023-01-07T05:22:31.948Z,9.77
2023-01-07T05:23:31.984Z,9.7
2023-01-07T05:24:31.974Z,9.77
2023-01-07T05:25:32.016Z,9.84
2023-01-07T05:26:31.960Z,9.73
2023-01-07T05:27:31.931Z,9.77
2023-01-07T05:28:32.288Z,9.82
2023-01-07T05:29:31.951Z,9.81
2023-01-07T05:31:31.983Z,9.67
2023-01-07T05:32:35.126Z,9.7
2023-01-07T05:33:32.031Z,9.74
2023-01-07T05:34:32.020Z,9.72
2023-01-07T05:35:34.960Z,9.77
2023-01-07T05:36:36.995Z,9.74
2023-01-07T05:37:34.499Z,9.76
2023-01-07T05:38:43.214Z,9.74
2023-01-07T05:52:45.922Z,9.84
2023-01-07T05:53:50.398Z,9.87
2023-01-07T05:54:51.484Z,9.76
2023-01-07T05:55:45.497Z,9.73
2023-01-07T06:00:58.152Z,9.85
2023-01-07T06:02:00.870Z,9.8
2023-01-07T06:02:57.916Z,9.76
2023-01-07T06:03:58.219Z,9.74
2023-01-07T06:04:58.192Z,9.84
2023-01-07T06:05:57.884Z,9.76
2023-01-07T06:07:00.919Z,9.74
2023-01-07T06:07:58.191Z,9.82
2023-01-07T06:08:57.890Z,9.81
2023-01-07T06:09:57.837Z,9.77
2023-01-07T06:10:57.843Z,9.9
2023-01-07T06:11:57.845Z,9.82
2023-01-07T06:13:00.633Z,9.84
2023-01-07T06:13:58.119Z,9.84
2023-01-07T06:14:57.864Z,9.88
2023-01-07T06:15:58.053Z,9.81
2023-01-07T06:16:57.876Z,9.77
2023-01-07T06:18:00.989Z,9.81
2023-01-07T06:18:57.963Z,9.92
2023-01-07T06:19:57.879Z,9.74
2023-01-07T06:20:57.894Z,9.74
2023-01-07T06:21:57.890Z,9.81
2023-01-07T06:23:00.245Z,9.85
2023-01-07T06:24:01.058Z,9.87
2023-01-07T06:24:57.868Z,9.84
2023-01-07T06:25:57.882Z,9.87
2023-01-07T06:26:57.875Z,9.9
2023-01-07T06:27:57.864Z,9.85
2023-01-07T06:28:59.760Z,9.84
2023-01-07T06:30:09.847Z,9.9
2023-01-07T06:30:58.196Z,9.91
2023-01-07T06:31:57.912Z,9.82
2023-01-07T06:32:57.981Z,9.95
2023-01-07T06:34:57.942Z,9.85
2023-01-07T06:35:57.977Z,9.82
2023-01-07T06:36:57.957Z,9.84
2023-01-07T06:37:57.950Z,9.9
2023-01-07T06:38:58.083Z,9.88
2023-01-07T06:40:02.058Z,9.91
2023-01-07T06:40:57.886Z,9.88
2023-01-07T06:41:57.904Z,9.87
2023-01-07T06:42:57.889Z,9.87
2023-01-07T06:43:58.132Z,9.81
2023-01-07T06:44:57.941Z,9.9
2023-01-07T06:45:58.032Z,9.84
2023-01-07T06:46:57.934Z,9.85
2023-01-07T06:47:57.912Z,9.94
2023-01-07T06:48:57.963Z,9.87
2023-01-07T06:49:57.943Z,9.91
2023-01-07T06:51:00.787Z,9.9
2023-01-07T06:51:57.910Z,9.88
2023-01-07T06:52:57.943Z,9.9
2023-01-07T06:53:57.918Z,9.95
2023-01-07T06:54:58.068Z,9.97
2023-01-07T06:55:58.180Z,9.85
2023-01-07T06:56:57.943Z,9.9
2023-01-07T06:57:57.961Z,9.87
2023-01-07T06:58:57.917Z,9.91
2023-01-07T06:59:58.017Z,9.91
2023-01-07T07:01:04.037Z,9.9
2023-01-07T07:02:04.435Z,9.97
2023-01-07T07:02:58.314Z,9.97
2023-01-07T07:04:04.995Z,9.9
2023-01-07T07:05:02.330Z,9.85
2023-01-07T07:05:57.981Z,9.87
2023-01-07T07:06:57.948Z,9.84
2023-01-07T07:07:57.957Z,9.87
2023-01-07T07:08:57.964Z,9.81
2023-01-07T07:09:57.946Z,9.87
2023-01-07T07:10:58.135Z,9.88
2023-01-07T07:11:58.288Z,9.85
2023-01-07T07:13:00.794Z,9.84
2023-01-07T07:14:03.982Z,9.85
2023-01-07T07:15:02.459Z,9.92
2023-01-07T07:16:00.553Z,9.85
2023-01-07T07:17:05.892Z,9.91
2023-01-07T07:21:07.828Z,9.84
2023-01-07T07:21:57.949Z,9.82
2023-01-07T07:22:57.968Z,9.82
2023-01-07T07:23:57.956Z,9.81
2023-01-07T07:24:57.999Z,9.95
2023-01-07T07:25:57.968Z,9.84
2023-01-07T07:26:57.990Z,9.87
2023-01-07T07:27:58.221Z,9.77
2023-01-07T07:28:57.985Z,9.77
2023-01-07T07:29:57.980Z,9.85
2023-01-07T07:33:16.042Z,9.85
2023-01-07T07:35:03.864Z,9.82
2023-01-07T07:36:00.723Z,9.81
2023-01-07T07:36:58.814Z,9.85
2023-01-07T07:37:58.049Z,9.84
2023-01-07T07:39:03.391Z,9.81
2023-01-07T07:40:00.266Z,9.87
2023-01-07T07:40:58.039Z,9.88
2023-01-07T07:41:58.055Z,9.82
2023-01-07T07:43:16.949Z,9.84
2023-01-07T07:43:58.122Z,9.85
2023-01-07T07:44:58.048Z,9.9
2023-01-07T07:45:58.032Z,9.82
2023-01-07T07:46:58.202Z,9.85
2023-01-07T07:47:58.025Z,9.69
2023-01-07T07:48:58.012Z,9.88
2023-01-07T07:49:58.018Z,9.91
2023-01-07T07:50:58.030Z,9.85
2023-01-07T07:51:58.034Z,10.05
2023-01-07T07:52:58.008Z,10
2023-01-07T07:53:58.039Z,9.85
2023-01-07T07:55:26.608Z,9.91
2023-01-07T07:56:05.402Z,9.91
2023-01-07T07:57:12.929Z,9.85
2023-01-07T07:57:58.088Z,9.91
2023-01-07T07:58:58.315Z,9.85
2023-01-07T08:00:00.958Z,9.95
2023-01-07T08:00:58.205Z,9.9
2023-01-07T08:01:58.209Z,9.85
2023-01-07T08:02:58.155Z,9.97
2023-01-07T08:03:58.042Z,10
2023-01-07T08:04:58.040Z,10.06
2023-01-07T08:06:00.557Z,9.97
2023-01-07T08:07:00.967Z,10.09
2023-01-07T08:08:00.835Z,9.99
2023-01-07T08:08:58.063Z,9.97
2023-01-07T08:10:00.808Z,10.02
2023-01-07T08:11:03.904Z,9.99
2023-01-07T08:16:01.607Z,10.07
2023-01-07T08:17:04.238Z,10.12
2023-01-07T08:18:00.871Z,10.15
2023-01-07T08:19:03.454Z,10.13
2023-01-07T08:19:58.131Z,10.13
2023-01-07T08:20:58.191Z,10.13
2023-01-07T08:22:07.221Z,10.15
2023-01-07T08:24:11.937Z,10.21
2023-01-07T08:25:00.962Z,10.09
2023-01-07T08:25:58.814Z,10.12
2023-01-07T08:27:01.822Z,10.13
2023-01-07T08:27:59.571Z,10.13
2023-01-07T08:29:14.858Z,10.25
2023-01-07T08:29:59.071Z,10.1
2023-01-07T08:31:01.656Z,10.2
2023-01-07T08:31:59.968Z,10.13
2023-01-07T08:33:06.932Z,10.07
2023-01-07T08:34:04.157Z,10.24
2023-01-07T08:34:58.128Z,10.33
2023-01-07T08:36:02.478Z,10.07
2023-01-07T08:40:05.842Z,10.23
2023-01-07T08:40:58.100Z,10.25
2023-01-07T08:41:58.074Z,10.33
2023-01-07T08:42:58.095Z,10.27
2023-01-07T08:43:58.121Z,10.3
2023-01-07T08:45:01.200Z,10.21
2023-01-07T08:45:58.131Z,10.3
2023-01-07T08:46:58.390Z,10.2
2023-01-07T08:47:58.294Z,10.21
2023-01-07T08:48:58.104Z,10.25
2023-01-07T08:49:58.104Z,10.25
2023-01-07T08:51:01.101Z,10.31
2023-01-07T08:51:58.113Z,10.25
2023-01-07T08:52:58.118Z,10.39
2023-01-07T08:53:58.081Z,10.33
2023-01-07T08:54:58.112Z,10.38
2023-01-07T08:55:59.757Z,10.31
2023-01-07T08:56:58.129Z,10.28
2023-01-07T08:57:58.097Z,10.41
2023-01-07T08:58:58.120Z,10.38
2023-01-07T08:59:58.123Z,10.48
2023-01-07T09:00:58.654Z,10.36
2023-01-07T09:01:58.837Z,10.34
2023-01-07T09:02:58.216Z,10.39
2023-01-07T09:03:58.462Z,10.38
2023-01-07T09:04:58.244Z,10.34
2023-01-07T09:06:00.974Z,10.42
2023-01-07T09:07:05.925Z,10.49
2023-01-07T09:08:23.409Z,10.43
2023-01-07T09:09:00.955Z,10.43
2023-01-07T09:10:07.879Z,10.48
2023-01-07T09:10:58.130Z,10.49
2023-01-07T09:12:01.169Z,10.38
2023-01-07T09:13:07.100Z,10.46
2023-01-07T09:15:01.260Z,10.51
2023-01-07T09:15:58.187Z,10.49
2023-01-07T09:16:58.157Z,10.58
2023-01-07T09:18:00.880Z,10.57
2023-01-07T09:18:58.124Z,10.55
2023-01-07T09:19:58.499Z,10.51
2023-01-07T09:20:58.146Z,10.57
2023-01-07T09:21:58.176Z,10.58
2023-01-07T09:22:58.160Z,10.57
2023-01-07T09:23:58.159Z,10.59
2023-01-07T09:24:58.160Z,10.65
2023-01-07T09:25:58.162Z,10.58
2023-01-07T09:26:58.145Z,10.61
2023-01-07T09:27:58.179Z,10.62
2023-01-07T09:29:01.128Z,10.61
2023-01-07T09:29:58.159Z,10.61
2023-01-07T09:31:00.520Z,10.64
2023-01-07T09:31:58.350Z,10.59
2023-01-07T09:32:58.154Z,10.64
2023-01-07T09:33:58.177Z,10.59
2023-01-07T09:34:58.183Z,10.64
2023-01-07T09:35:58.910Z,10.58
2023-01-07T09:36:58.193Z,10.57
2023-01-07T09:37:58.196Z,10.68
2023-01-07T09:38:58.180Z,10.62
2023-01-07T09:40:00.988Z,10.69
2023-01-07T09:40:58.184Z,10.68
2023-01-07T09:41:58.189Z,10.58
2023-01-07T09:42:58.164Z,10.57
2023-01-07T09:44:07.078Z,10.62
2023-01-07T09:44:58.166Z,10.62
2023-01-07T09:45:58.503Z,10.62
2023-01-07T09:46:58.180Z,10.69
2023-01-07T09:47:58.222Z,10.64
2023-01-07T09:48:58.191Z,10.61
2023-01-07T09:49:58.217Z,10.65
2023-01-07T09:50:58.198Z,10.62
2023-01-07T09:51:58.543Z,10.62
2023-01-07T09:52:58.174Z,10.65
2023-01-07T09:53:58.218Z,10.62
2023-01-07T09:54:58.191Z,10.64
2023-01-07T09:56:16.381Z,10.62
2023-01-07T09:56:58.203Z,10.65
2023-01-07T09:57:58.221Z,10.64
2023-01-07T09:58:58.198Z,10.65
2023-01-07T09:59:58.189Z,10.62
2023-01-07T10:00:58.370Z,10.61
2023-01-07T10:01:58.230Z,10.69
2023-01-07T10:02:58.443Z,10.71
2023-01-07T10:03:58.432Z,10.61
2023-01-07T10:04:58.215Z,10.67
2023-01-07T10:05:58.208Z,10.69
2023-01-07T10:06:58.257Z,10.69
2023-01-07T10:08:35.112Z,10.75
2023-01-07T10:08:58.228Z,10.75
2023-01-07T10:09:58.223Z,10.69
2023-01-07T10:10:58.266Z,10.72
2023-01-07T10:11:58.236Z,10.71
2023-01-07T10:12:58.232Z,10.67
2023-01-07T10:13:58.250Z,10.75
2023-01-07T10:14:58.242Z,10.76
2023-01-07T10:15:58.231Z,10.76
2023-01-07T10:16:58.311Z,10.71
2023-01-07T10:17:58.237Z,10.71
2023-01-07T10:18:58.316Z,10.75
2023-01-07T10:19:58.233Z,10.79
2023-01-07T10:20:58.254Z,10.68
2023-01-07T10:21:58.269Z,10.75
2023-01-07T10:23:01.262Z,10.75
2023-01-07T10:23:58.613Z,10.72
2023-01-07T10:24:58.244Z,10.76
2023-01-07T10:25:58.241Z,10.82
2023-01-07T10:26:58.275Z,10.79
2023-01-07T10:27:58.265Z,10.76
2023-01-07T10:28:58.253Z,10.8
2023-01-07T10:29:58.273Z,10.65
2023-01-07T10:30:58.279Z,10.87
2023-01-07T10:31:58.601Z,10.84
2023-01-07T10:32:58.268Z,10.83
2023-01-07T10:34:01.319Z,10.79
2023-01-07T10:34:58.267Z,10.84
2023-01-07T10:36:00.202Z,10.84
2023-01-07T10:36:58.305Z,10.83
2023-01-07T10:37:58.255Z,10.8
2023-01-07T10:38:58.265Z,10.92
2023-01-07T10:39:58.633Z,10.87
2023-01-07T10:40:58.271Z,10.92
2023-01-07T10:41:58.299Z,10.86
2023-01-07T10:42:58.292Z,10.87
2023-01-07T10:43:58.276Z,10.92
2023-01-07T10:45:01.036Z,10.89
2023-01-07T10:45:58.490Z,10.94
2023-01-07T10:46:58.295Z,10.98
2023-01-07T10:47:58.301Z,10.98
2023-01-07T10:48:58.279Z,10.98
2023-01-07T10:49:58.296Z,11
2023-01-07T10:50:58.271Z,11.1
2023-01-07T10:51:58.342Z,11
2023-01-07T10:52:58.304Z,11.05
2023-01-07T10:53:58.286Z,11.07
2023-01-07T10:54:58.290Z,11.08
2023-01-07T10:56:01.443Z,11.15
2023-01-07T10:56:58.346Z,11.19
2023-01-07T10:57:58.298Z,11.19
2023-01-07T10:58:58.283Z,11.19
2023-01-07T10:59:58.285Z,11.25
2023-01-07T11:01:01.845Z,11.26
2023-01-07T11:01:59.197Z,11.27
2023-01-07T11:02:58.477Z,11.33
2023-01-07T11:03:58.306Z,11.49
2023-01-07T11:04:58.310Z,11.53
2023-01-07T11:05:58.304Z,11.67
2023-01-07T11:07:01.165Z,11.73
2023-01-07T11:07:58.313Z,11.67
2023-01-07T11:08:58.318Z,11.6
2023-01-07T11:09:58.337Z,11.55
2023-01-07T11:11:00.903Z,11.48
2023-01-07T11:12:00.187Z,11.48
2023-01-07T11:12:58.311Z,11.48
2023-01-07T11:13:58.328Z,11.45
2023-01-07T11:14:58.336Z,11.49
2023-01-07T11:15:58.335Z,11.45
2023-01-07T11:16:58.635Z,11.49
2023-01-07T11:18:01.384Z,11.51
2023-01-07T11:18:58.502Z,11.55
2023-01-07T11:19:58.337Z,11.65
2023-01-07T11:20:58.335Z,11.59
2023-01-07T11:21:59.113Z,11.65
2023-01-07T11:23:01.115Z,11.68
2023-01-07T11:23:58.348Z,11.65
2023-01-07T11:24:58.346Z,11.65
2023-01-07T11:25:58.354Z,11.6
2023-01-07T11:26:58.441Z,11.7
2023-01-07T11:27:58.724Z,11.73
2023-01-07T11:29:01.551Z,11.73
2023-01-07T11:29:58.364Z,11.68
2023-01-07T11:30:58.432Z,11.56
2023-01-07T11:31:58.662Z,11.68
2023-01-07T11:32:58.420Z,11.65
2023-01-07T11:34:08.082Z,11.67
2023-01-07T11:34:58.364Z,11.68
2023-01-07T11:35:58.358Z,11.71
2023-01-07T11:36:58.478Z,11.71
2023-01-07T11:37:58.375Z,11.63
2023-01-07T11:38:58.355Z,11.7
2023-01-07T11:39:58.373Z,11.67
2023-01-07T11:40:59.873Z,11.65
2023-01-07T11:41:58.451Z,11.63
2023-01-07T11:42:58.389Z,11.62
2023-01-07T11:43:58.721Z,11.65
2023-01-07T11:45:01.434Z,11.6
2023-01-07T11:46:28.439Z,11.65
2023-01-07T11:46:58.732Z,11.65
2023-01-07T11:47:58.365Z,11.55
2023-01-07T11:48:58.384Z,11.65
2023-01-07T11:49:58.378Z,11.67
2023-01-07T11:50:58.375Z,11.67
2023-01-07T11:51:58.415Z,11.68
2023-01-07T11:52:58.380Z,11.65
2023-01-07T11:53:58.384Z,11.63
2023-01-07T11:54:58.418Z,11.49
2023-01-07T11:56:01.508Z,11.56
2023-01-07T11:56:59.896Z,11.56
2023-01-07T11:58:31.852Z,11.59
2023-01-07T11:58:58.405Z,11.55
2023-01-07T11:59:58.756Z,11.59
2023-01-07T12:00:58.469Z,11.53
2023-01-07T12:01:58.678Z,11.65
2023-01-07T12:02:58.424Z,11.58
2023-01-07T12:03:58.503Z,11.68
2023-01-07T12:04:58.265Z,11.56
2023-01-07T12:05:58.420Z,11.6
2023-01-07T12:07:01.326Z,11.73
2023-01-07T12:07:58.403Z,11.71
2023-01-07T12:08:58.460Z,11.63
2023-01-07T12:09:58.398Z,11.73
2023-01-07T12:10:58.475Z,11.65
2023-01-07T12:11:58.468Z,11.67
2023-01-07T12:12:59.273Z,11.73
2023-01-07T12:13:58.430Z,11.76
2023-01-07T12:14:58.445Z,11.89
2023-01-07T12:15:58.803Z,11.85
2023-01-07T12:16:58.643Z,11.95
2023-01-07T12:17:58.450Z,11.96
2023-01-07T12:18:58.477Z,11.95
2023-01-07T12:19:58.450Z,11.95
2023-01-07T12:20:58.428Z,11.95
2023-01-07T12:21:58.483Z,11.93
2023-01-07T12:23:03.545Z,11.97
2023-01-07T12:23:58.444Z,11.89
2023-01-07T12:24:58.451Z,11.97
2023-01-07T12:25:58.413Z,12.03
2023-01-07T12:26:58.468Z,11.97
2023-01-07T12:27:58.463Z,12.03
2023-01-07T12:28:58.479Z,12.05
2023-01-07T12:29:58.429Z,12.07
2023-01-07T12:30:58.575Z,12.05
2023-01-07T12:31:58.870Z,12.17
2023-01-07T12:32:58.483Z,12.07
2023-01-07T12:33:58.531Z,12.11
2023-01-07T12:34:58.549Z,12.15
2023-01-07T12:35:58.502Z,12.26
2023-01-07T12:36:58.455Z,12.17
2023-01-07T12:37:58.577Z,12.2
2023-01-07T12:38:58.464Z,12.25
2023-01-07T12:40:01.015Z,12.23
2023-01-07T12:40:58.491Z,12.29
2023-01-07T12:41:58.482Z,12.15
2023-01-07T12:42:58.528Z,12.18
2023-01-07T12:44:02.225Z,12.14
2023-01-07T12:44:58.481Z,12.15
2023-01-07T12:45:58.705Z,12.21
2023-01-07T12:47:37.619Z,12.15
2023-01-07T12:47:58.626Z,12
2023-01-07T12:48:58.677Z,12.12
2023-01-07T12:50:01.371Z,12.21
2023-01-07T12:50:58.484Z,12.14
2023-01-07T12:51:58.495Z,12.15
2023-01-07T12:52:58.522Z,12.1
2023-01-07T12:53:58.589Z,12.2
2023-01-07T12:54:58.479Z,12.15
2023-01-07T12:55:58.592Z,12.12
2023-01-07T12:56:58.475Z,12.1
2023-01-07T12:57:58.508Z,12.14
2023-01-07T12:58:58.513Z,12.11
2023-01-07T12:59:59.094Z,12.12
2023-01-07T13:01:02.500Z,12.14
2023-01-07T13:01:59.030Z,12.11
2023-01-07T13:02:58.784Z,12.1
2023-01-07T13:03:58.574Z,12.12
2023-01-07T13:04:58.709Z,12.25
2023-01-07T13:05:58.528Z,12.26
2023-01-07T13:06:58.517Z,12.23
2023-01-07T13:07:58.562Z,12.28
2023-01-07T13:08:58.526Z,12.33
2023-01-07T13:09:58.552Z,12.21
2023-01-07T13:10:58.536Z,12.26
2023-01-07T13:12:01.514Z,12.21
2023-01-07T13:12:58.563Z,12.15
2023-01-07T13:13:58.511Z,12.14
2023-01-07T13:14:58.517Z,12.08
2023-01-07T13:15:58.688Z,12.12
2023-01-07T13:16:58.525Z,12.11
2023-01-07T13:17:58.814Z,12.11
2023-01-07T13:18:58.790Z,12.18
2023-01-07T13:19:58.660Z,12
2023-01-07T13:20:58.369Z,11.93
2023-01-07T13:21:58.509Z,12
2023-01-07T13:23:01.624Z,11.96
2023-01-07T13:23:58.540Z,12.02
2023-01-07T13:24:59.399Z,11.97
2023-01-07T13:25:58.537Z,11.97
2023-01-07T13:26:58.569Z,11.96
2023-01-07T13:27:59.935Z,11.99
2023-01-07T13:28:58.575Z,11.97
2023-01-07T13:29:59.043Z,11.93
2023-01-07T13:30:58.710Z,12.07
2023-01-07T13:31:58.554Z,11.96
2023-01-07T13:32:58.405Z,12.07
2023-01-07T13:34:01.844Z,12.03
2023-01-07T13:34:58.678Z,12.02
2023-01-07T13:35:58.808Z,12.08
2023-01-07T13:36:58.580Z,12.02
2023-01-07T13:37:58.594Z,12.02
2023-01-07T13:39:01.414Z,12.07
2023-01-07T13:39:58.587Z,12.03
2023-01-07T13:40:58.580Z,12.03
2023-01-07T13:41:58.559Z,12.02
2023-01-07T13:42:58.587Z,12.03
2023-01-07T13:43:58.572Z,12.03
2023-01-07T13:45:01.688Z,12.02
2023-01-07T13:45:58.757Z,11.99
2023-01-07T13:46:58.578Z,12.05
2023-01-07T13:47:59.103Z,12.02
2023-01-07T13:48:58.612Z,11.96